Radar

TAFs

KTOL 151128Z 1512/1612 VRB03KT P6SM SKC 
  FM151500 06008KT P6SM FEW250 
  FM160100 09003KT P6SM SCT250
KJXN 151137Z 1512/1612 08007KT P6SM BKN250 
  FM160100 09007KT P6SM BKN150
KFDY 151128Z 1512/1612 VRB03KT P6SM SKC 
  FM151500 07007KT P6SM FEW250 
  FM160800 10005KT P6SM SCT250
KDTW 151120Z 1512/1618 03005KT P6SM SKC 
  FM152200 14009KT P6SM BKN200 
  FM160200 11004KT P6SM SCT150 BKN250 
  FM161500 17010KT P6SM SKC
KCLE 151450Z 1515/1618 01010KT P6SM FEW250 
  FM160200 08005KT P6SM SCT250
KFWA 151122Z 1512/1612 10008KT P6SM SCT250

METARs

KTDZ 151453Z AUTO 07009KT 10SM CLR 23/11 A3020 RMK AO2 SLP224 T02280106 51004
KTOL 151452Z 07007KT 10SM CLR 23/12 A3019 RMK AO2 SLP220 T02280117 53002
KDUH 151455Z AUTO 11008KT 10SM CLR 22/07 A3019 RMK AO2 T02150070
KJXN 151456Z 07004KT 10SM CLR 22/10 A3020 RMK AO2 SLP222 T02170100 58003
KFDY 151453Z AUTO 08008KT 10SM CLR 23/10 A3018 RMK AO2 SLP213 T02280100 51005
KDTW 151453Z 00000KT 10SM FEW085 SCT220 22/11 A3020 RMK AO2 SLP225 T02170106 58001 $
KCLE 151451Z 35010KT 10SM FEW250 22/09 A3018 RMK AO2 SLP232 T02220089 51008
KFWA 151454Z 10008KT 10SM FEW230 FEW300 24/11 A3018 RMK AO2 SLP215 T02390106 50004

Visible Satellite

Satellite

TFRs

TFRs